Time;durP1;ratioP1;P1;durP2;ratioP2;P2;SDS_P1;SDS_P2;PMS_P1;PMS_P2;Temp;Humidity;BMP_temperature;BMP_pressure;BME280_temperature;BME280_humidity;BME280_pressure;Samples;Min_cycle;Max_cycle;Signal;HPM_P1;HPM_P2
2021/07/21 00:00:10;;;;;;;10.57;7.03;;;;;;;15.99;69.89;99050.18;2281409;77;21005;-81
2021/07/21 00:03:13;;;;;;;13.93;7.70;;;;;;;15.97;69.90;99051.95;2260881;78;20966;-82
2021/07/21 00:06:13;;;;;;;13.68;7.25;;;;;;;15.94;69.38;99052.84;2281249;77;20982;-81
2021/07/21 00:09:14;;;;;;;10.68;7.35;;;;;;;15.89;69.04;99054.19;2281206;77;20977;-83
2021/07/21 00:15:33;;;;;;;10.72;7.20;;;;;;;15.85;69.10;99059.48;2280716;77;21005;-82
2021/07/21 00:18:45;;;;;;;13.58;6.72;;;;;;;15.83;68.92;99060.80;2280135;77;20977;-81
2021/07/21 00:21:36;;;;;;;17.42;7.47;;;;;;;15.81;69.07;99058.63;2278779;78;21022;-81
2021/07/21 00:24:37;;;;;;;13.50;6.85;;;;;;;15.78;69.17;99054.69;2280551;77;20956;-81
2021/07/21 00:27:37;;;;;;;14.47;7.40;;;;;;;15.76;69.19;99053.83;2280698;77;21016;-80
2021/07/21 00:30:38;;;;;;;12.28;7.55;;;;;;;15.68;69.19;99054.31;2280756;77;20989;-80
2021/07/21 00:33:38;;;;;;;19.67;8.43;;;;;;;15.66;69.55;99060.02;2281337;77;20985;-80
2021/07/21 00:36:39;;;;;;;15.48;8.88;;;;;;;15.65;69.57;99063.54;2281153;78;21330;-81
2021/07/21 00:39:39;;;;;;;11.68;6.45;;;;;;;15.66;69.44;99061.34;2281035;77;21295;-83
2021/07/21 00:42:40;;;;;;;10.58;7.40;;;;;;;15.68;69.60;99062.65;2281300;77;20953;-82
2021/07/21 00:45:40;;;;;;;15.53;8.83;;;;;;;15.67;69.83;99059.58;2281145;77;21028;-82
2021/07/21 00:48:41;;;;;;;12.55;6.78;;;;;;;15.65;69.41;99070.56;2281771;77;20954;-83
2021/07/21 00:51:41;;;;;;;15.10;7.33;;;;;;;15.64;69.90;99070.13;2281056;77;20977;-84
2021/07/21 00:54:42;;;;;;;15.23;6.95;;;;;;;15.59;69.60;99063.53;2281455;77;20960;-82
2021/07/21 00:57:42;;;;;;;18.05;7.17;;;;;;;15.57;69.64;99062.63;2281324;77;21331;-82
2021/07/21 01:00:43;;;;;;;11.22;7.20;;;;;;;15.57;69.56;99071.84;2281437;77;20950;-83
2021/07/21 01:39:06;;;;;;;14.77;9.50;;;;;;;15.58;70.92;99068.36;2328538;76;27509;-83
2021/07/21 01:42:06;;;;;;;12.20;7.67;;;;;;;15.72;70.17;99069.64;2318033;77;21001;-83
2021/07/21 01:45:07;;;;;;;14.15;6.72;;;;;;;15.67;70.13;99070.11;2317855;77;20950;-81
2021/07/21 01:48:07;;;;;;;14.83;7.58;;;;;;;15.65;70.11;99079.33;2317840;77;21403;-82
2021/07/21 01:51:08;;;;;;;13.50;7.65;;;;;;;15.63;69.74;99079.77;2317949;77;21339;-80
2021/07/21 01:54:09;;;;;;;9.78;7.60;;;;;;;15.61;69.89;99071.02;2318275;77;20939;-81
2021/07/21 01:57:10;;;;;;;14.10;7.60;;;;;;;15.58;69.74;99065.29;2317798;77;21343;-82
2021/07/21 02:00:11;;;;;;;12.07;8.03;;;;;;;15.53;69.72;99064.84;2317715;77;20931;-82
2021/07/21 02:03:11;;;;;;;12.18;7.05;;;;;;;15.46;69.75;99063.13;2317727;77;20959;-79
2021/07/21 02:06:12;;;;;;;10.35;6.80;;;;;;;15.41;69.89;99057.88;2317768;77;21303;-82
2021/07/21 02:09:12;;;;;;;16.20;7.15;;;;;;;15.35;70.13;99058.34;2285533;77;20982;-81
2021/07/21 02:12:13;;;;;;;15.25;8.28;;;;;;;15.28;70.17;99065.39;2284798;78;21005;-82
2021/07/21 02:15:14;;;;;;;17.17;7.95;;;;;;;15.24;70.16;99068.47;2290225;77;20931;-81
2021/07/21 02:18:15;;;;;;;11.20;8.63;;;;;;;15.16;70.32;99064.98;2291995;78;21007;-82
2021/07/21 02:21:15;;;;;;;11.40;7.70;;;;;;;15.06;70.36;99076.41;2291990;78;20940;-83
2021/07/21 02:24:15;;;;;;;11.48;7.80;;;;;;;15.00;70.50;99077.73;2292007;78;20920;-81
2021/07/21 02:27:16;;;;;;;14.33;7.85;;;;;;;14.93;70.53;99073.38;2292280;78;20956;-81
2021/07/21 02:30:16;;;;;;;13.05;7.33;;;;;;;14.88;70.73;99077.77;2292282;78;20909;-83
2021/07/21 02:33:17;;;;;;;17.87;9.25;;;;;;;14.82;70.69;99072.08;2292640;78;20940;-81
2021/07/21 02:36:18;;;;;;;9.90;7.83;;;;;;;14.79;70.70;99083.03;2291950;78;20991;-81
2021/07/21 02:39:18;;;;;;;17.75;8.25;;;;;;;14.76;70.77;99073.84;2292577;78;21004;-81
2021/07/21 02:42:19;;;;;;;11.53;7.03;;;;;;;14.72;70.72;99077.31;2292235;78;20932;-80
2021/07/21 02:45:19;;;;;;;15.35;7.83;;;;;;;14.70;70.87;99076.44;2292069;78;21343;-82
2021/07/21 02:48:20;;;;;;;13.30;7.80;;;;;;;14.69;70.80;99081.26;2292118;78;20932;-82
2021/07/21 02:51:21;;;;;;;11.88;7.10;;;;;;;14.66;70.80;99083.02;2291667;78;20988;-82
2021/07/21 02:54:21;;;;;;;10.90;7.17;;;;;;;14.64;70.73;99079.95;2291793;78;20971;-82
2021/07/21 02:57:22;;;;;;;14.47;7.03;;;;;;;14.61;70.75;99083.89;2291683;78;20975;-81
2021/07/21 03:00:22;;;;;;;18.20;7.28;;;;;;;14.63;70.97;99090.02;2291723;78;21320;-81
2021/07/21 03:03:23;;;;;;;12.10;7.47;;;;;;;14.61;70.76;99094.40;2291831;78;20948;-81
2021/07/21 03:06:23;;;;;;;19.60;7.30;;;;;;;14.58;70.67;99090.46;2291889;78;20923;-83
2021/07/21 03:09:24;;;;;;;11.48;8.15;;;;;;;14.59;70.77;99100.09;2292184;78;20948;-83
2021/07/21 03:12:24;;;;;;;14.00;7.30;;;;;;;14.61;71.08;99108.41;2292235;78;20905;-82
2021/07/21 03:15:25;;;;;;;12.58;8.15;;;;;;;14.61;70.87;99108.41;2292171;78;20975;-82
2021/07/21 03:18:25;;;;;;;12.58;7.30;;;;;;;14.66;70.90;99104.03;2292018;78;20971;-83
2021/07/21 03:21:26;;;;;;;9.30;6.87;;;;;;;14.70;70.73;99119.36;2292230;78;20893;-82
2021/07/21 03:24:26;;;;;;;12.25;7.03;;;;;;;14.75;70.69;99118.08;2291789;78;20948;-82
2021/07/21 03:27:27;;;;;;;16.73;7.35;;;;;;;14.78;70.89;99118.07;2291934;78;20991;-81
2021/07/21 03:30:27;;;;;;;18.80;7.95;;;;;;;14.84;70.74;99116.75;2291673;78;20994;-81
2021/07/21 03:33:28;;;;;;;9.73;7.08;;;;;;;14.87;70.69;99111.49;2291155;78;20936;-82
2021/07/21 03:36:29;;;;;;;10.50;6.90;;;;;;;14.97;70.45;99121.12;2291641;78;20987;-82
2021/07/21 03:39:30;;;;;;;12.03;7.42;;;;;;;15.04;70.34;99121.54;2291933;77;21361;-82
2021/07/21 03:42:30;;;;;;;10.05;7.80;;;;;;;15.10;70.37;99116.71;2285694;78;20910;-82
2021/07/21 03:45:30;;;;;;;16.73;7.90;;;;;;;15.18;70.08;99121.08;2281855;78;20957;-82
2021/07/21 03:48:31;;;;;;;11.18;8.45;;;;;;;15.25;70.06;99120.62;2281572;78;20985;-82
2021/07/21 03:51:31;;;;;;;13.72;8.15;;;;;;;15.33;69.71;99122.79;2281864;78;20946;-79
2021/07/21 03:54:32;;;;;;;11.65;8.28;;;;;;;15.44;69.71;99124.08;2281579;78;21376;-81
2021/07/21 03:57:33;;;;;;;12.63;8.10;;;;;;;15.54;69.53;99117.89;2281601;78;20977;-81
2021/07/21 04:00:34;;;;;;;10.65;7.45;;;;;;;15.64;69.18;99116.17;2281429;78;20969;-82
2021/07/21 04:03:35;;;;;;;11.73;7.45;;;;;;;15.72;69.14;99124.47;2281266;78;21000;-83
2021/07/21 04:06:35;;;;;;;11.12;7.58;;;;;;;15.72;68.81;99120.52;2281654;78;21000;-85
2021/07/21 04:09:36;;;;;;;9.28;7.17;;;;;;;15.80;68.88;99123.99;2281840;78;21021;-81
2021/07/21 04:12:36;;;;;;;16.32;8.08;;;;;;;15.87;68.69;99133.61;2281949;78;21322;-82
2021/07/21 04:15:37;;;;;;;10.13;6.87;;;;;;;15.90;68.60;99131.41;2281673;78;20988;-83
2021/07/21 04:18:38;;;;;;;14.75;7.22;;;;;;;15.92;68.41;99138.85;2280721;77;21036;-81
2021/07/21 04:21:39;;;;;;;11.70;7.50;;;;;;;15.93;68.33;99140.60;2281146;77;21037;-82
2021/07/21 04:24:39;;;;;;;13.75;7.30;;;;;;;15.93;68.22;99138.84;2281419;78;21477;-83
2021/07/21 04:27:40;;;;;;;14.95;7.17;;;;;;;15.92;68.16;99138.85;2281407;78;20972;-82
2021/07/21 04:30:40;;;;;;;12.63;6.87;;;;;;;15.85;68.18;99139.32;2281250;78;20945;-82
2021/07/21 04:33:41;;;;;;;16.48;8.10;;;;;;;15.82;68.49;99148.98;2281618;78;20989;-82
2021/07/21 04:36:41;;;;;;;10.72;8.00;;;;;;;16.10;68.41;99151.05;2281812;78;20969;-81
2021/07/21 04:39:42;;;;;;;14.30;7.95;;;;;;;16.08;68.17;99156.31;2289670;77;21455;-81
2021/07/21 04:42:42;;;;;;;10.78;7.17;;;;;;;16.34;68.37;99153.53;2291026;78;21096;-80
2021/07/21 04:45:43;;;;;;;11.60;7.30;;;;;;;16.27;67.44;99158.41;2291381;78;21030;-82
2021/07/21 04:48:43;;;;;;;14.13;7.47;;;;;;;16.18;67.97;99162.41;2291111;78;21465;-80
2021/07/21 04:51:44;;;;;;;9.35;7.08;;;;;;;16.34;67.84;99162.75;2290385;78;20956;-80
2021/07/21 04:54:44;;;;;;;13.78;7.75;;;;;;;16.62;66.89;99166.11;2290044;78;21305;-81
2021/07/21 04:57:48;;;;;;;16.23;7.67;;;;;;;16.62;66.85;99162.59;2290155;78;20971;-81
2021/07/21 05:00:51;;;;;;;15.03;7.08;;;;;;;16.65;67.04;99171.39;2290271;77;20940;-81
2021/07/21 05:03:50;;;;;;;9.70;7.28;;;;;;;16.71;67.24;99169.15;2289584;77;21285;-80
2021/07/21 05:06:50;;;;;;;12.35;7.47;;;;;;;16.99;67.44;99172.43;2289754;78;21006;-81
2021/07/21 05:09:51;;;;;;;10.65;6.83;;;;;;;17.14;66.49;99171.84;2290473;78;21027;-79
2021/07/21 05:12:51;;;;;;;13.22;6.65;;;;;;;17.16;65.72;99171.39;2291154;78;20932;-81
2021/07/21 05:15:51;;;;;;;12.73;7.12;;;;;;;17.17;65.63;99173.14;2291251;78;20987;-80
2021/07/21 05:18:52;;;;;;;11.43;7.08;;;;;;;17.18;65.82;99173.56;2291143;78;20968;-80
2021/07/21 05:21:53;;;;;;;22.77;7.42;;;;;;;17.32;65.87;99168.60;2290580;78;20959;-81
2021/07/21 05:24:53;;;;;;;13.80;7.33;;;;;;;17.45;64.76;99177.73;2290174;78;20951;-81
2021/07/21 05:27:54;;;;;;;12.73;7.20;;;;;;;17.34;65.34;99177.37;2291063;78;20956;-80
2021/07/21 05:30:54;;;;;;;11.30;7.42;;;;;;;17.38;65.41;99180.00;2290620;78;20948;-80
2021/07/21 05:33:54;;;;;;;9.03;6.95;;;;;;;17.51;65.37;99176.78;2290983;78;20964;-81
2021/07/21 05:36:55;;;;;;;12.05;7.30;;;;;;;17.60;64.76;99185.92;2290830;78;20952;-79
2021/07/21 05:39:55;;;;;;;13.93;6.60;;;;;;;17.73;65.11;99190.66;2290127;78;20999;-81
2021/07/21 05:42:56;;;;;;;11.70;6.53;;;;;;;17.72;64.91;99188.46;2290667;78;20995;-83
2021/07/21 05:45:56;;;;;;;8.43;6.85;;;;;;;17.88;65.02;99190.47;2290781;78;21375;-80
2021/07/21 05:48:57;;;;;;;9.38;6.58;;;;;;;18.06;64.56;99194.66;2290716;78;20952;-81
2021/07/21 05:52:01;;;;;;;10.08;6.60;;;;;;;18.28;64.39;99191.31;2290459;78;20991;-81
2021/07/21 05:55:02;;;;;;;12.82;6.62;;;;;;;18.48;63.62;99189.71;2289893;78;21420;-80
2021/07/21 05:58:02;;;;;;;16.57;6.35;;;;;;;18.39;63.78;99198.64;2290611;78;20959;-82
2021/07/21 06:01:03;;;;;;;13.50;7.05;;;;;;;18.44;63.64;99194.16;2290508;78;20983;-80
2021/07/21 06:04:04;;;;;;;14.95;6.87;;;;;;;18.48;64.08;99200.28;2289754;78;21382;-80
2021/07/21 06:07:07;;;;;;;12.53;7.58;;;;;;;18.62;63.65;99204.95;2289197;78;20924;-82
2021/07/21 06:10:06;;;;;;;9.73;7.30;;;;;;;18.66;63.51;99213.27;2288893;78;21027;-80
2021/07/21 06:13:07;;;;;;;9.13;6.83;;;;;;;18.67;63.24;99212.37;2288541;78;21379;-81
2021/07/21 06:16:08;;;;;;;11.35;6.75;;;;;;;18.71;63.49;99210.10;2289632;78;21348;-82
2021/07/21 06:19:14;;;;;;;8.33;6.42;;;;;;;19.09;63.24;99209.08;2289729;78;21347;-81
2021/07/21 06:22:18;;;;;;;13.15;6.35;;;;;;;19.18;62.72;99212.47;2289721;78;21412;-81
2021/07/21 06:25:17;;;;;;;8.03;6.10;;;;;;;19.22;62.67;99208.42;2289954;77;20987;-79
2021/07/21 06:28:17;;;;;;;10.82;6.45;;;;;;;19.32;61.88;99221.04;2290598;78;21011;-82
2021/07/21 06:31:18;;;;;;;10.95;6.05;;;;;;;19.33;63.00;99219.69;2290791;78;20972;-81
2021/07/21 06:34:21;;;;;;;10.05;5.72;;;;;;;19.36;62.27;99224.93;2290844;78;20928;-84
2021/07/21 06:37:22;;;;;;;7.80;5.93;;;;;;;19.41;61.92;99232.34;2290779;78;21048;-81
2021/07/21 06:40:22;;;;;;;9.33;5.83;;;;;;;19.44;61.60;99228.77;2280702;78;21742;-82
2021/07/21 06:43:23;;;;;;;9.90;5.03;;;;;;;19.50;61.46;99231.30;2281007;78;20926;-81
2021/07/21 06:46:24;;;;;;;9.90;5.85;;;;;;;19.61;61.16;99243.06;2281070;78;20961;-80
2021/07/21 06:49:24;;;;;;;7.17;5.33;;;;;;;19.78;60.87;99238.77;2281568;78;20997;-82
2021/07/21 06:52:25;;;;;;;6.25;5.03;;;;;;;19.83;59.97;99236.91;2280605;78;20981;-78
2021/07/21 06:55:25;;;;;;;9.63;5.35;;;;;;;19.80;60.53;99239.61;2279581;78;20934;-79
2021/07/21 06:58:26;;;;;;;9.15;5.28;;;;;;;19.80;60.47;99237.84;2279131;78;20933;-82
2021/07/21 07:01:26;;;;;;;7.75;5.60;;;;;;;19.87;59.97;99242.56;2279845;77;20946;-80
2021/07/21 07:04:27;;;;;;;10.32;5.60;;;;;;;19.91;60.11;99244.25;2279390;78;21321;-82
2021/07/21 07:07:27;;;;;;;7.30;5.47;;;;;;;19.99;59.71;99251.63;2280546;78;21353;-81
2021/07/21 07:10:28;;;;;;;11.48;5.58;;;;;;;20.15;59.71;99243.80;2281364;78;20985;-81
2021/07/21 07:13:30;;;;;;;8.88;5.20;;;;;;;20.38;59.48;99241.11;2260074;78;20899;-82
2021/07/21 07:16:31;;;;;;;5.40;4.78;;;;;;;20.65;59.17;99244.52;2280285;78;20954;-79
2021/07/21 07:19:31;;;;;;;7.75;5.05;;;;;;;20.76;57.55;99246.48;2280404;78;20953;-82
2021/07/21 07:22:32;;;;;;;9.35;5.35;;;;;;;20.77;57.04;99248.22;2280876;78;20954;-81
2021/07/21 07:25:32;;;;;;;9.48;4.97;;;;;;;20.91;57.89;99248.80;2280832;78;20937;-81
2021/07/21 07:28:33;;;;;;;9.00;5.03;;;;;;;20.95;56.25;99246.95;2280238;78;20946;-80
2021/07/21 07:31:34;;;;;;;7.05;5.05;;;;;;;21.01;56.16;99256.09;2280112;78;21381;-79
2021/07/21 07:34:34;;;;;;;9.05;5.72;;;;;;;21.13;56.35;99253.59;2280844;78;20976;-82
2021/07/21 07:37:35;;;;;;;9.55;4.92;;;;;;;21.23;56.26;99242.75;2280362;78;21004;-80
2021/07/21 07:40:35;;;;;;;10.82;5.37;;;;;;;21.51;56.30;99245.58;2248479;78;21003;-78
2021/07/21 07:43:37;;;;;;;8.95;4.97;;;;;;;21.70;54.93;99246.45;2248773;78;20994;-81
2021/07/21 07:46:38;;;;;;;12.47;4.65;;;;;;;21.81;54.71;99245.70;2248096;78;21443;-81
2021/07/21 07:49:39;;;;;;;6.72;4.55;;;;;;;21.88;54.25;99243.29;2248161;79;20943;-81
2021/07/21 07:52:39;;;;;;;6.60;4.60;;;;;;;22.00;53.72;99243.41;2248535;78;20932;-80
2021/07/21 07:55:40;;;;;;;9.60;5.25;;;;;;;22.06;53.94;99245.92;2248398;79;20960;-82
2021/07/21 07:58:41;;;;;;;8.13;5.40;;;;;;;22.08;53.20;99250.74;2248672;78;21359;-81
2021/07/21 08:01:41;;;;;;;5.80;4.83;;;;;;;22.07;53.13;99244.55;2248156;79;21647;-83
2021/07/21 08:04:42;;;;;;;5.15;4.47;;;;;;;22.06;53.61;99248.58;2248051;78;21324;-83
2021/07/21 08:07:42;;;;;;;8.65;4.72;;;;;;;22.10;53.27;99243.14;2247764;78;20968;-81
2021/07/21 08:10:43;;;;;;;6.42;4.37;;;;;;;22.19;52.65;99241.55;2247674;78;20955;-81
2021/07/21 08:13:52;;;;;;;6.67;4.97;;;;;;;22.27;52.55;99243.98;2248861;78;20976;-80
2021/07/21 08:16:52;;;;;;;10.95;4.65;;;;;;;22.44;52.65;99247.02;2248944;78;21077;-82
2021/07/21 08:19:53;;;;;;;6.55;4.45;;;;;;;22.49;52.14;99249.08;2248988;79;20927;-82
2021/07/21 08:22:54;;;;;;;6.12;4.50;;;;;;;22.75;51.12;99247.44;2248993;79;21402;-82
2021/07/21 08:25:54;;;;;;;8.98;4.67;;;;;;;22.72;50.88;99247.53;2248610;78;20927;-82
2021/07/21 08:28:55;;;;;;;7.50;4.90;;;;;;;22.51;50.68;99252.56;2248464;79;21245;-81
2021/07/21 08:31:55;;;;;;;7.20;4.45;;;;;;;22.90;51.43;99246.99;2248709;78;21314;-78
2021/07/21 08:34:58;;;;;;;5.78;4.28;;;;;;;23.15;50.24;99253.73;2248954;78;20971;-82
2021/07/21 08:37:58;;;;;;;8.57;4.47;;;;;;;23.47;49.25;99250.90;2249878;77;21028;-81
2021/07/21 08:40:59;;;;;;;8.38;4.65;;;;;;;23.51;47.98;99259.66;2281291;78;20973;-80
2021/07/21 08:43:59;;;;;;;7.35;4.25;;;;;;;23.32;48.36;99262.50;2281192;78;21370;-81
2021/07/21 08:47:00;;;;;;;4.35;3.95;;;;;;;23.22;48.87;99269.92;2280210;78;20938;-82
2021/07/21 08:50:06;;;;;;;8.65;4.85;;;;;;;23.46;47.26;99253.16;2280167;77;20969;-81
2021/07/21 08:53:07;;;;;;;9.20;4.62;;;;;;;23.82;46.48;99255.03;2280648;78;21373;-79
2021/07/21 08:56:07;;;;;;;5.95;4.22;;;;;;;23.93;46.42;99256.45;2280288;77;21017;-78
2021/07/21 08:59:08;;;;;;;7.80;4.45;;;;;;;24.18;44.81;99260.43;2279702;78;20965;-81
2021/07/21 09:02:08;;;;;;;9.05;4.37;;;;;;;24.02;45.18;99259.66;2280267;78;20974;-81
2021/07/21 09:05:09;;;;;;;6.58;4.20;;;;;;;23.72;45.77;99252.75;2280035;78;20946;-83
2021/07/21 09:08:09;;;;;;;6.37;4.40;;;;;;;23.58;45.60;99261.69;2280445;78;21361;-81
2021/07/21 09:11:10;;;;;;;6.65;5.10;;;;;;;23.31;46.65;99263.42;2280285;77;20942;-82
2021/07/21 09:14:10;;;;;;;14.18;4.30;;;;;;;23.22;46.59;99265.92;2280859;78;20949;-82
2021/07/21 09:17:11;;;;;;;4.75;4.10;;;;;;;23.54;46.15;99264.01;2280789;78;20965;-80
2021/07/21 09:20:11;;;;;;;5.12;4.20;;;;;;;23.96;45.55;99260.34;2280171;78;20973;-81
2021/07/21 09:23:17;;;;;;;9.43;4.30;;;;;;;24.30;44.06;99265.38;2281021;78;20986;-83
2021/07/21 09:26:18;;;;;;;9.48;3.90;;;;;;;24.57;43.66;99254.99;2281436;78;20953;-81
2021/07/21 09:29:18;;;;;;;7.90;4.12;;;;;;;24.46;44.72;99253.20;2280844;78;21346;-80
2021/07/21 09:32:19;;;;;;;8.65;4.20;;;;;;;24.05;44.20;99256.01;2280571;78;20961;-81
2021/07/21 09:35:19;;;;;;;8.35;4.67;;;;;;;23.72;44.37;99254.95;2280511;78;20949;-80
2021/07/21 09:38:20;;;;;;;5.28;4.67;;;;;;;24.15;43.91;99262.28;2277141;78;22172;-80
2021/07/21 09:41:20;;;;;;;7.10;4.25;;;;;;;24.42;40.62;99256.91;2248348;79;21607;-81
2021/07/21 09:44:21;;;;;;;5.15;4.65;;;;;;;24.58;42.21;99259.41;2248650;79;21604;-81
2021/07/21 09:47:22;;;;;;;5.83;4.10;;;;;;;24.86;41.99;99248.98;2247751;79;20943;-79
2021/07/21 09:50:25;;;;;;;8.50;4.30;;;;;;;25.07;41.05;99246.81;2247706;78;20935;-79
2021/07/21 09:53:25;;;;;;;9.65;3.92;;;;;;;24.66;41.68;99257.77;2247985;78;21366;-81
2021/07/21 09:56:26;;;;;;;7.08;3.90;;;;;;;24.26;42.82;99259.69;2247316;78;20935;-80
2021/07/21 09:59:29;;;;;;;11.03;4.15;;;;;;;23.95;42.04;99263.47;2248378;78;20959;-80
2021/07/21 10:02:29;;;;;;;9.35;4.17;;;;;;;23.66;42.75;99273.82;2248181;79;21363;-82
2021/07/21 10:05:30;;;;;;;6.00;4.22;;;;;;;23.50;44.34;99268.11;2247468;79;20958;-79
2021/07/21 10:08:30;;;;;;;10.15;4.60;;;;;;;23.37;42.81;99282.73;2247661;78;21009;-81
2021/07/21 10:11:31;;;;;;;8.25;4.40;;;;;;;23.17;43.91;99275.86;2247816;78;20978;-80
2021/07/21 10:14:31;;;;;;;7.08;4.58;;;;;;;22.95;44.65;99269.02;2247458;78;20983;-79
2021/07/21 10:17:32;;;;;;;5.17;4.12;;;;;;;22.84;44.66;99276.00;2247563;78;20968;-80
2021/07/21 10:20:32;;;;;;;7.20;4.45;;;;;;;22.91;44.95;99266.50;2247558;78;20924;-82
2021/07/21 10:23:33;;;;;;;8.85;3.95;;;;;;;23.09;45.15;99267.24;2247917;78;20913;-81
2021/07/21 10:26:34;;;;;;;6.28;4.22;;;;;;;23.79;45.17;99256.48;2247491;78;20959;-81
2021/07/21 10:29:34;;;;;;;8.60;3.70;;;;;;;24.65;42.84;99257.36;2247700;79;21359;-81
2021/07/21 10:32:35;;;;;;;12.43;4.70;;;;;;;25.25;39.82;99247.42;2248766;78;21467;-79
2021/07/21 10:35:37;;;;;;;10.10;4.10;;;;;;;24.97;38.16;99253.42;2248466;78;21004;-80
2021/07/21 10:38:38;;;;;;;6.33;4.23;;;;;;;25.12;39.90;99251.50;2251827;77;21948;-81
2021/07/21 10:41:38;;;;;;;12.93;4.47;;;;;;;25.56;39.50;99260.37;2290073;78;20952;-82
2021/07/21 10:44:39;;;;;;;5.85;4.22;;;;;;;25.64;38.12;99257.37;2290381;78;20944;-82
2021/07/21 10:47:45;;;;;;;5.15;4.67;;;;;;;25.64;37.16;99258.70;2289779;78;21344;-80
2021/07/21 10:51:08;;;;;;;5.33;4.10;;;;;;;25.66;36.21;99255.53;2290148;78;20916;-80
2021/07/21 10:54:13;;;;;;;6.97;4.62;;;;;;;25.86;35.21;99253.33;2289071;77;21343;-80
2021/07/21 11:00:31;;;;;;;14.18;4.30;;;;;;;26.35;35.69;99248.05;2290000;78;20988;-79
2021/07/21 11:03:44;;;;;;;9.08;4.55;;;;;;;26.02;37.32;99255.77;2290412;78;21366;-82
2021/07/21 11:06:45;;;;;;;7.58;4.78;;;;;;;25.15;39.55;99259.42;2290734;78;20974;-80
2021/07/21 11:09:45;;;;;;;10.40;4.80;;;;;;;24.84;40.42;99257.52;2289946;78;20975;-79
2021/07/21 11:12:46;;;;;;;6.85;5.20;;;;;;;24.52;38.78;99258.30;2290075;78;20963;-82
2021/07/21 11:15:47;;;;;;;8.63;5.30;;;;;;;24.15;38.77;99262.28;2290103;78;20940;-81
2021/07/21 11:18:47;;;;;;;11.20;5.10;;;;;;;24.00;39.86;99261.50;2290584;78;21011;-80
2021/07/21 11:21:48;;;;;;;5.90;5.40;;;;;;;23.92;40.00;99254.25;2290769;78;20948;-81
2021/07/21 11:24:48;;;;;;;7.85;5.28;;;;;;;23.88;40.60;99253.08;2290268;78;20959;-81
2021/07/21 11:27:49;;;;;;;8.35;4.70;;;;;;;23.77;40.55;99258.79;2290999;78;20924;-82
2021/07/21 11:30:50;;;;;;;6.03;4.62;;;;;;;24.01;39.58;99253.91;2290756;78;21007;-80
2021/07/21 11:33:54;;;;;;;8.03;4.05;;;;;;;24.38;36.13;99248.62;2290205;78;20980;-85
2021/07/21 11:36:56;;;;;;;8.68;4.55;;;;;;;24.71;35.33;99247.78;2290027;77;20996;-83
2021/07/21 11:39:57;;;;;;;;;;;;;;;24.50;36.93;99248.16;2292840;78;21079;-82
2021/07/21 11:42:57;;;;;;;5.22;4.50;;;;;;;24.56;37.56;99246.58;2290775;78;20432;-83
2021/07/21 11:45:58;;;;;;;10.53;4.90;;;;;;;24.73;38.42;99245.46;2290869;78;20986;-80
2021/07/21 11:48:58;;;;;;;13.58;5.20;;;;;;;24.68;38.75;99244.77;2290298;78;21320;-82
2021/07/21 11:51:59;;;;;;;6.95;4.47;;;;;;;24.43;39.05;99262.19;2289540;78;20967;-81
2021/07/21 11:54:59;;;;;;;7.97;4.10;;;;;;;24.58;39.91;99248.73;2290140;78;20988;-82
2021/07/21 11:58:00;;;;;;;10.65;5.00;;;;;;;25.12;39.57;99251.50;2290029;78;20956;-82
2021/07/21 12:01:01;;;;;;;9.85;4.97;;;;;;;25.12;38.60;99279.55;2289995;78;21347;-82
2021/07/21 12:04:02;;;;;;;10.82;4.62;;;;;;;24.93;39.83;99261.16;2289033;78;20956;-82
2021/07/21 12:07:02;;;;;;;4.80;3.90;;;;;;;24.69;39.56;99275.88;2290031;78;20976;-83
2021/07/21 12:10:03;;;;;;;7.65;4.42;;;;;;;24.65;38.88;99267.58;2289879;78;21131;-81
2021/07/21 12:13:03;;;;;;;12.07;4.70;;;;;;;24.39;39.21;99273.03;2289680;78;20904;-80
2021/07/21 12:16:04;;;;;;;10.50;4.72;;;;;;;24.30;40.45;99276.05;2289968;78;20952;-81
2021/07/21 12:19:04;;;;;;;8.20;4.40;;;;;;;24.29;40.50;99272.97;2289120;78;20968;-80
2021/07/21 12:22:07;;;;;;;6.08;4.50;;;;;;;24.23;39.71;99274.47;2266119;78;20923;-82
2021/07/21 12:25:07;;;;;;;9.53;4.47;;;;;;;24.06;40.24;99278.62;2290184;78;20955;-83
2021/07/21 12:28:08;;;;;;;5.90;3.98;;;;;;;24.15;39.69;99279.62;2289593;78;20920;-81
2021/07/21 12:31:08;;;;;;;8.63;4.30;;;;;;;24.29;38.87;99278.31;2289652;78;20900;-82
2021/07/21 12:34:09;;;;;;;9.00;4.17;;;;;;;24.50;38.78;99271.30;2289882;78;20971;-80
2021/07/21 12:37:09;;;;;;;7.37;3.72;;;;;;;24.57;38.65;99267.00;2290435;78;21352;-80
2021/07/21 12:40:10;;;;;;;6.17;3.87;;;;;;;24.76;37.20;99270.70;2285346;78;21416;-81
2021/07/21 12:43:14;;;;;;;5.22;4.03;;;;;;;24.95;36.68;99271.31;2280348;78;20968;-80
2021/07/21 12:46:13;;;;;;;9.05;3.98;;;;;;;25.09;36.27;99268.98;2280335;78;21025;-82
2021/07/21 12:49:13;;;;;;;6.00;4.15;;;;;;;25.45;36.37;99263.09;2280745;78;21345;-81
2021/07/21 12:52:14;;;;;;;9.05;4.33;;;;;;;25.57;35.92;99260.77;2280616;78;21329;-81
2021/07/21 12:55:14;;;;;;;9.10;4.33;;;;;;;25.56;36.12;99258.16;2280651;78;20985;-80
2021/07/21 12:58:18;;;;;;;6.58;3.90;;;;;;;25.54;35.64;99257.36;2280870;78;20981;-83
2021/07/21 13:01:18;;;;;;;;;;;;;;;25.35;36.36;99251.45;2283720;77;21021;-82
2021/07/21 13:04:19;;;;;;;6.45;4.30;;;;;;;25.64;35.99;99258.70;2280451;78;20362;-82
2021/07/21 13:07:19;;;;;;;8.15;3.98;;;;;;;25.62;36.79;99245.87;2281000;78;20994;-80
2021/07/21 13:10:20;;;;;;;8.18;3.85;;;;;;;25.62;36.64;99252.09;2280335;78;21001;-80
2021/07/21 13:13:21;;;;;;;8.45;4.40;;;;;;;25.83;37.59;99242.77;2280644;78;20965;-83
2021/07/21 13:16:22;;;;;;;6.62;4.42;;;;;;;25.22;37.68;99256.03;2280741;78;20974;-80
2021/07/21 13:19:22;;;;;;;6.42;4.33;;;;;;;24.57;39.67;99265.67;2280422;77;21004;-83
2021/07/21 13:22:23;;;;;;;8.78;4.85;;;;;;;24.23;41.08;99262.00;2280353;78;21334;-81
2021/07/21 13:25:24;;;;;;;7.22;4.20;;;;;;;24.12;40.94;99273.06;2280234;78;20982;-82
2021/07/21 13:28:24;;;;;;;9.98;4.62;;;;;;;23.97;41.12;99269.62;2280076;78;21379;-82
2021/07/21 13:31:25;;;;;;;5.60;4.22;;;;;;;23.93;38.21;99289.31;2280904;78;20961;-79
2021/07/21 13:34:30;;;;;;;7.47;4.08;;;;;;;24.04;38.92;99273.80;2280740;78;20970;-80
2021/07/21 13:37:31;;;;;;;5.90;3.90;;;;;;;24.24;38.07;99265.08;2280458;78;20994;-81
2021/07/21 13:40:31;;;;;;;9.65;4.08;;;;;;;24.42;38.56;99256.91;2284287;78;21011;-82
2021/07/21 13:43:32;;;;;;;14.00;4.47;;;;;;;24.61;38.28;99269.96;2290437;78;20916;-80
2021/07/21 13:46:32;;;;;;;10.63;4.03;;;;;;;24.59;38.08;99266.95;2290795;78;20928;-79
2021/07/21 13:49:33;;;;;;;6.47;4.60;;;;;;;24.41;38.84;99273.85;2290961;78;20980;-81
2021/07/21 13:52:33;;;;;;;15.25;4.80;;;;;;;24.43;39.27;99263.52;2290289;78;21366;-81
2021/07/21 13:55:34;;;;;;;9.48;4.22;;;;;;;24.63;39.72;99263.23;2290520;78;20971;-80
2021/07/21 13:58:35;;;;;;;11.48;4.55;;;;;;;24.70;39.41;99274.94;2290528;78;20971;-81
2021/07/21 14:01:37;;;;;;;8.28;5.00;;;;;;;24.85;38.13;99284.62;2290915;78;20944;-79
2021/07/21 14:04:38;;;;;;;11.53;4.55;;;;;;;24.52;38.56;99268.98;2290807;78;20956;-76
2021/07/21 14:07:38;;;;;;;7.35;4.65;;;;;;;24.17;39.60;99277.36;2290337;78;21384;-79
2021/07/21 14:10:39;;;;;;;7.95;5.10;;;;;;;24.09;40.54;99274.51;2290179;78;21000;-82
2021/07/21 14:13:39;;;;;;;7.15;4.40;;;;;;;24.05;40.70;99279.55;2290570;78;20939;-79
2021/07/21 14:16:40;;;;;;;9.28;4.28;;;;;;;24.00;40.51;99275.30;2290605;78;20971;-81
2021/07/21 14:19:40;;;;;;;4.70;4.30;;;;;;;23.92;39.84;99278.23;2290536;78;21301;-81
2021/07/21 14:22:41;;;;;;;8.90;5.03;;;;;;;24.00;39.74;99281.50;2290737;78;20961;-82
2021/07/21 14:25:41;;;;;;;7.83;4.78;;;;;;;24.26;40.04;99274.36;2291068;78;20963;-81
2021/07/21 14:28:42;;;;;;;6.72;4.47;;;;;;;24.40;39.70;99270.77;2291309;78;20987;-80
2021/07/21 14:31:43;;;;;;;12.05;5.00;;;;;;;24.36;39.85;99279.36;2290808;78;20967;-81
2021/07/21 14:34:43;;;;;;;7.53;4.55;;;;;;;24.17;39.68;99269.36;2291085;78;20916;-80
2021/07/21 14:37:47;;;;;;;6.75;4.30;;;;;;;24.21;39.41;99273.66;2290899;78;21347;-81
2021/07/21 14:40:47;;;;;;;6.22;4.10;;;;;;;24.40;39.77;99258.30;2286169;78;21077;-80
2021/07/21 14:43:49;;;;;;;6.97;4.33;;;;;;;24.72;39.47;99258.86;2281139;78;20997;-81
2021/07/21 14:46:50;;;;;;;5.95;4.65;;;;;;;24.72;38.46;99269.55;2280931;78;20990;-81